Time;durP1;ratioP1;P1;durP2;ratioP2;P2;SDS_P1;SDS_P2;PMS_P1;PMS_P2;Temp;Humidity;BMP_temperature;BMP_pressure;BME280_temperature;BME280_humidity;BME280_pressure;Samples;Min_cycle;Max_cycle;Signal;HPM_P1;HPM_P2
2022/08/05 00:01:56;;;;;;;;;;;;;;;-144.99;100.00;61100.13;5051810;28;19931;-61
2022/08/05 00:04:22;;;;;;;;;;;;;;;-144.99;100.00;61100.13;5052476;28;20075;-64
2022/08/05 00:06:48;;;;;;;;;;;;;;;-144.99;100.00;61100.13;5047937;28;19924;-61
2022/08/05 00:09:15;;;;;;;;;;;;;;;-144.99;100.00;61100.13;5039319;28;19941;-64
2022/08/05 00:11:41;;;;;;;;;;;;;;;-144.99;100.00;61100.13;5051677;28;20274;-63
2022/08/05 00:14:08;;;;;;;;;;;;;;;-144.99;100.00;61100.13;5038708;28;20004;-62
2022/08/05 00:16:36;;;;;;;;;;;;;;;-144.99;100.00;61100.13;5049811;28;20015;-62
2022/08/05 00:19:02;;;;;;;;;;;;;;;-144.99;100.00;61100.13;5043155;28;19960;-63
2022/08/05 00:21:28;;;;;;;;;;;;;;;-144.99;100.00;61100.13;5045577;28;19941;-61
2022/08/05 00:23:55;;;;;;;;;;;;;;;-144.99;100.00;61100.13;5050268;28;19933;-61
2022/08/05 00:26:22;;;;;;;;;;;;;;;-144.99;100.00;61100.13;5042390;28;19995;-61
2022/08/05 00:28:48;;;;;;;;;;;;;;;-144.99;100.00;61100.13;5044211;28;19925;-60
2022/08/05 00:31:14;;;;;;;;;;;;;;;-144.99;100.00;61100.13;5043888;28;20016;-61
2022/08/05 00:33:42;;;;;;;;;;;;;;;-144.99;100.00;61100.13;5051047;28;19925;-62
2022/08/05 00:36:09;;;;;;;;;;;;;;;-144.99;100.00;61100.13;5041367;28;19933;-62
2022/08/05 00:38:37;;;;;;;;;;;;;;;-144.99;100.00;61100.13;5046946;28;19929;-63
2022/08/05 00:41:06;;;;;;;;;;;;;;;-144.99;100.00;61100.13;5044200;28;19972;-62
2022/08/05 00:43:32;;;;;;;;;;;;;;;-144.99;100.00;61100.13;5040439;28;20301;-60
2022/08/05 00:45:59;;;;;;;;;;;;;;;-144.99;100.00;61100.13;5048276;28;20019;-61
2022/08/05 00:48:25;;;;;;;;;;;;;;;-144.99;100.00;61100.13;5042679;28;20301;-61
2022/08/05 00:50:53;;;;;;;;;;;;;;;-144.99;100.00;61100.13;5040761;28;20426;-63
2022/08/05 00:53:20;;;;;;;;;;;;;;;-144.99;100.00;61100.13;5040814;28;19925;-62
2022/08/05 00:55:47;;;;;;;;;;;;;;;-144.99;100.00;61100.13;5049370;28;19962;-62
2022/08/05 00:58:15;;;;;;;;;;;;;;;-144.99;100.00;61100.13;5033103;28;19936;-61
2022/08/05 01:00:42;;;;;;;;;;;;;;;-144.99;100.00;61100.13;5048589;28;19925;-61
2022/08/05 01:03:09;;;;;;;;;;;;;;;-144.99;100.00;61100.13;5050930;28;19960;-61
2022/08/05 01:05:35;;;;;;;;;;;;;;;-144.99;100.00;61100.13;5047562;28;19933;-61
2022/08/05 01:08:04;;;;;;;;;;;;;;;-144.99;100.00;61100.13;5038676;28;19929;-63
2022/08/05 01:10:31;;;;;;;;;;;;;;;-144.99;100.00;61100.13;5049714;28;20297;-59
2022/08/05 01:13:01;;;;;;;;;;;;;;;-144.99;100.00;61100.13;5043211;28;19925;-60
2022/08/05 01:15:32;;;;;;;;;;;;;;;-144.99;100.00;61100.13;5040098;28;19935;-60
2022/08/05 01:18:01;;;;;;;;;;;;;;;-144.99;100.00;61100.13;5042478;28;20032;-60
2022/08/05 01:20:31;;;;;;;;;;;;;;;-144.99;100.00;61100.13;5048397;28;20344;-60
2022/08/05 01:23:01;;;;;;;;;;;;;;;-144.99;100.00;61100.13;5050611;28;19964;-60
2022/08/05 01:25:45;;;;;;;;;;;;;;;-144.99;100.00;61100.13;5037010;28;19998;-60
2022/08/05 01:28:24;;;;;;;;;;;;;;;-144.99;100.00;61100.13;5047025;28;20448;-60
2022/08/05 01:30:53;;;;;;;;;;;;;;;-144.99;100.00;61100.13;5037739;28;19925;-60
2022/08/05 01:33:21;;;;;;;;;;;;;;;-144.99;100.00;61100.13;5048259;28;20019;-60
2022/08/05 01:35:49;;;;;;;;;;;;;;;-144.99;100.00;61100.13;5049913;28;19967;-59
2022/08/05 01:38:17;;;;;;;;;;;;;;;-144.99;100.00;61100.13;5046256;28;20012;-62
2022/08/05 01:40:44;;;;;;;;;;;;;;;-144.99;100.00;61100.13;5043668;28;20024;-59
2022/08/05 01:43:11;;;;;;;;;;;;;;;-144.99;100.00;61100.13;5043923;28;19925;-59
2022/08/05 01:45:39;;;;;;;;;;;;;;;-144.99;100.00;61100.13;5041958;28;19987;-60
2022/08/05 01:48:07;;;;;;;;;;;;;;;-144.99;100.00;61100.13;5050020;28;20024;-61
2022/08/05 01:50:36;;;;;;;;;;;;;;;-144.99;100.00;61100.13;5039902;28;20389;-60
2022/08/05 01:53:04;;;;;;;;;;;;;;;-144.99;100.00;61100.13;5043554;28;19925;-62
2022/08/05 01:55:32;;;;;;;;;;;;;;;-144.99;100.00;61100.13;5040551;28;20019;-62
2022/08/05 01:57:59;;;;;;;;;;;;;;;-144.99;100.00;61100.13;5042489;28;20403;-62
2022/08/05 02:00:26;;;;;;;;;;;;;;;-144.99;100.00;61100.13;5049871;28;19963;-62
2022/08/05 02:02:55;;;;;;;;;;;;;;;-144.99;100.00;61100.13;5049780;28;19925;-62
2022/08/05 02:05:22;;;;;;;;;;;;;;;-144.99;100.00;61100.13;5045950;28;19973;-62
2022/08/05 02:07:49;;;;;;;;;;;;;;;-144.99;100.00;61100.13;5045594;28;19951;-63
2022/08/05 02:10:16;;;;;;;;;;;;;;;-144.99;100.00;61100.13;5050216;28;20027;-63
2022/08/05 02:12:44;;;;;;;;;;;;;;;-144.99;100.00;61100.13;5049598;28;19956;-62
2022/08/05 02:15:13;;;;;;;;;;;;;;;-144.99;100.00;61100.13;5046143;28;19925;-62
2022/08/05 02:17:45;;;;;;;;;;;;;;;-144.99;100.00;61100.13;5037716;28;19931;-63
2022/08/05 02:20:18;;;;;;;;;;;;;;;-144.99;100.00;61100.13;5045775;28;20291;-63
2022/08/05 02:22:47;;;;;;;;;;;;;;;-144.99;100.00;61100.13;5049099;28;20011;-62
2022/08/05 02:25:16;;;;;;;;;;;;;;;-144.99;100.00;61100.13;5044620;28;20354;-62
2022/08/05 02:27:47;;;;;;;;;;;;;;;-144.99;100.00;61100.13;5037818;28;19925;-63
2022/08/05 02:30:15;;;;;;;;;;;;;;;-144.99;100.00;61100.13;5048871;28;19925;-62
2022/08/05 02:32:42;;;;;;;;;;;;;;;-144.99;100.00;61100.13;5042641;28;19931;-62
2022/08/05 02:35:11;;;;;;;;;;;;;;;-144.99;100.00;61100.13;5047644;28;19944;-62
2022/08/05 02:37:40;;;;;;;;;;;;;;;-144.99;100.00;61100.13;5046181;28;20361;-62
2022/08/05 02:40:09;;;;;;;;;;;;;;;-144.99;100.00;61100.13;5049368;28;20011;-61
2022/08/05 02:42:36;;;;;;;;;;;;;;;-144.99;100.00;61100.13;5049190;28;20012;-61
2022/08/05 02:45:04;;;;;;;;;;;;;;;-144.99;100.00;61100.13;5049324;28;19925;-61
2022/08/05 02:47:31;;;;;;;;;;;;;;;-144.99;100.00;61100.13;5040531;28;20036;-62
2022/08/05 02:49:59;;;;;;;;;;;;;;;-144.99;100.00;61100.13;5036858;28;20359;-61
2022/08/05 02:52:25;;;;;;;;;;;;;;;-144.99;100.00;61100.13;5049883;28;19986;-60
2022/08/05 02:54:54;;;;;;;;;;;;;;;-144.99;100.00;61100.13;5052882;28;20015;-60
2022/08/05 02:57:22;;;;;;;;;;;;;;;-144.99;100.00;61100.13;5046665;28;20019;-60
2022/08/05 02:59:49;;;;;;;;;;;;;;;-144.99;100.00;61100.13;5042183;28;19925;-59
2022/08/05 03:02:19;;;;;;;;;;;;;;;-144.99;100.00;61100.13;5050863;28;20006;-60
2022/08/05 03:04:46;;;;;;;;;;;;;;;-144.99;100.00;61100.13;5052814;28;20063;-60
2022/08/05 03:07:13;;;;;;;;;;;;;;;-144.99;100.00;61100.13;5047202;28;20012;-60
2022/08/05 03:09:43;;;;;;;;;;;;;;;-144.99;100.00;61100.13;5046541;28;20172;-60
2022/08/05 03:12:28;;;;;;;;;;;;;;;-144.99;100.00;61100.13;5052797;28;19971;-59
2022/08/05 03:14:55;;;;;;;;;;;;;;;-144.99;100.00;61100.13;5052568;28;20049;-61
2022/08/05 03:17:21;;;;;;;;;;;;;;;-144.99;100.00;61100.13;5048681;28;20379;-60
2022/08/05 03:19:47;;;;;;;;;;;;;;;-144.99;100.00;61100.13;5041308;28;20290;-60
2022/08/05 03:22:14;;;;;;;;;;;;;;;-144.99;100.00;61100.13;5039274;28;20015;-60
2022/08/05 03:24:41;;;;;;;;;;;;;;;-144.99;100.00;61100.13;5053260;28;20274;-60
2022/08/05 03:27:07;;;;;;;;;;;;;;;-144.99;100.00;61100.13;5050308;28;20024;-60
2022/08/05 03:29:35;;;;;;;;;;;;;;;-144.99;100.00;61100.13;5034179;28;20401;-60
2022/08/05 03:32:02;;;;;;;;;;;;;;;-144.99;100.00;61100.13;5045593;28;20454;-61
2022/08/05 03:34:29;;;;;;;;;;;;;;;-144.99;100.00;61100.13;5040077;28;19925;-60
2022/08/05 03:36:56;;;;;;;;;;;;;;;-144.99;100.00;61100.13;5048333;28;20014;-62
2022/08/05 03:39:22;;;;;;;;;;;;;;;-144.99;100.00;61100.13;5052550;28;19951;-62
2022/08/05 03:41:49;;;;;;;;;;;;;;;-144.99;100.00;61100.13;5052379;28;20127;-65
2022/08/05 03:44:15;;;;;;;;;;;;;;;-144.99;100.00;61100.13;5052592;28;20352;-65
2022/08/05 03:46:43;;;;;;;;;;;;;;;-144.99;100.00;61100.13;5045046;28;20363;-65
2022/08/05 03:49:09;;;;;;;;;;;;;;;-144.99;100.00;61100.13;5047293;28;20015;-64
2022/08/05 03:51:38;;;;;;;;;;;;;;;-144.99;100.00;61100.13;5091397;22;19963;-63
2022/08/05 03:54:06;;;;;;;;;;;;;;;-144.99;100.00;61100.13;5090282;28;20341;-61
2022/08/05 03:56:36;;;;;;;;;;;;;;;-144.99;100.00;61100.13;5082144;28;20232;-60
2022/08/05 03:59:06;;;;;;;;;;;;;;;-144.99;100.00;61100.13;5081667;28;19947;-59
2022/08/05 04:01:36;;;;;;;;;;;;;;;-144.99;100.00;61100.13;5070881;28;19924;-57
2022/08/05 04:04:04;;;;;;;;;;;;;;;-144.99;100.00;61100.13;5071666;28;20018;-59
2022/08/05 04:06:33;;;;;;;;;;;;;;;-144.99;100.00;61100.13;5070424;28;19924;-59
2022/08/05 04:08:59;;;;;;;;;;;;;;;-144.99;100.00;61100.13;5066663;28;19924;-60
2022/08/05 04:11:26;;;;;;;;;;;;;;;-144.99;100.00;61100.13;5071306;28;20035;-62
2022/08/05 04:13:53;;;;;;;;;;;;;;;-144.99;100.00;61100.13;5071111;28;20261;-61
2022/08/05 04:16:19;;;;;;;;;;;;;;;-144.99;100.00;61100.13;5070287;28;20040;-60
2022/08/05 04:18:46;;;;;;;;;;;;;;;-144.99;100.00;61100.13;5071881;28;19935;-61
2022/08/05 04:21:14;;;;;;;;;;;;;;;-144.99;100.00;61100.13;5070310;28;19924;-62
2022/08/05 04:23:40;;;;;;;;;;;;;;;-144.99;100.00;61100.13;5070617;28;19928;-61
2022/08/05 04:26:07;;;;;;;;;;;;;;;-144.99;100.00;61100.13;5071032;28;20006;-61
2022/08/05 04:28:33;;;;;;;;;;;;;;;-144.99;100.00;61100.13;5065080;28;19924;-62
2022/08/05 04:31:00;;;;;;;;;;;;;;;-144.99;100.00;61100.13;5063399;28;20015;-62
2022/08/05 04:33:27;;;;;;;;;;;;;;;-144.99;100.00;61100.13;5070533;28;19928;-62
2022/08/05 04:35:53;;;;;;;;;;;;;;;-144.99;100.00;61100.13;5067562;28;20023;-62
2022/08/05 04:38:21;;;;;;;;;;;;;;;-144.99;100.00;61100.13;5070907;28;20019;-62
2022/08/05 04:40:47;;;;;;;;;;;;;;;-144.99;100.00;61100.13;5070628;28;20027;-62
2022/08/05 04:43:14;;;;;;;;;;;;;;;-144.99;100.00;61100.13;5070250;28;20026;-62
2022/08/05 04:45:40;;;;;;;;;;;;;;;-144.99;100.00;61100.13;5068978;28;20011;-61
2022/08/05 04:48:07;;;;;;;;;;;;;;;-144.99;100.00;61100.13;5070268;28;19924;-64
2022/08/05 04:50:38;;;;;;;;;;;;;;;-144.99;100.00;61100.13;5070048;28;19924;-72
2022/08/05 04:53:04;;;;;;;;;;;;;;;-144.99;100.00;61100.13;5067478;28;20274;-71
2022/08/05 04:55:32;;;;;;;;;;;;;;;-144.99;100.00;61100.13;5068011;28;20019;-71
2022/08/05 04:57:58;;;;;;;;;;;;;;;-144.99;100.00;61100.13;5070608;28;20300;-71
2022/08/05 05:00:25;;;;;;;;;;;;;;;-144.99;100.00;61100.13;5070191;28;20163;-71
2022/08/05 05:02:51;;;;;;;;;;;;;;;-144.99;100.00;61100.13;5070131;28;19967;-71
2022/08/05 05:05:18;;;;;;;;;;;;;;;-144.99;100.00;61100.13;4718345;28;9999741;-71
2022/08/05 05:07:44;;;;;;;;;;;;;;;-144.99;100.00;61100.13;5057738;28;20019;-69
2022/08/05 05:10:11;;;;;;;;;;;;;;;-144.99;100.00;61100.13;5055715;28;19951;-69
2022/08/05 05:12:39;;;;;;;;;;;;;;;-144.99;100.00;61100.13;5066351;28;20347;-69
2022/08/05 05:15:05;;;;;;;;;;;;;;;-144.99;100.00;61100.13;5063384;28;20020;-69
2022/08/05 05:17:36;;;;;;;;;;;;;;;-144.99;100.00;61100.13;5059117;28;20011;-69
2022/08/05 05:20:04;;;;;;;;;;;;;;;-144.99;100.00;61100.13;5067307;28;19938;-69
2022/08/05 05:22:30;;;;;;;;;;;;;;;-144.99;100.00;61100.13;5064242;28;20350;-69
2022/08/05 05:24:56;;;;;;;;;;;;;;;-144.99;100.00;61100.13;5068472;28;19932;-68
2022/08/05 05:27:23;;;;;;;;;;;;;;;-144.99;100.00;61100.13;5070177;28;20276;-68
2022/08/05 05:29:51;;;;;;;;;;;;;;;-144.99;100.00;61100.13;5069192;28;19983;-68
2022/08/05 05:32:17;;;;;;;;;;;;;;;-144.99;100.00;61100.13;5065211;28;20018;-69
2022/08/05 05:34:44;;;;;;;;;;;;;;;-144.99;100.00;61100.13;5066436;28;20023;-68
2022/08/05 05:37:12;;;;;;;;;;;;;;;-144.99;100.00;61100.13;5066443;28;20140;-68
2022/08/05 05:39:38;;;;;;;;;;;;;;;-144.99;100.00;61100.13;5066342;28;20405;-69
2022/08/05 05:42:05;;;;;;;;;;;;;;;-144.99;100.00;61100.13;5064549;28;20395;-68
2022/08/05 05:44:31;;;;;;;;;;;;;;;-144.99;100.00;61100.13;5064386;28;19975;-67
2022/08/05 05:46:59;;;;;;;;;;;;;;;-144.99;100.00;61100.13;5065724;28;20098;-67
2022/08/05 05:49:25;;;;;;;;;;;;;;;-144.99;100.00;61100.13;5065844;28;19968;-68
2022/08/05 05:51:52;;;;;;;;;;;;;;;-144.99;100.00;61100.13;5061322;28;20386;-68
2022/08/05 05:54:18;;;;;;;;;;;;;;;-144.99;100.00;61100.13;5057030;28;20032;-67
2022/08/05 05:56:45;;;;;;;;;;;;;;;-144.99;100.00;61100.13;5065932;28;20403;-68
2022/08/05 05:59:11;;;;;;;;;;;;;;;-144.99;100.00;61100.13;5065974;28;20340;-69
2022/08/05 06:01:39;;;;;;;;;;;;;;;-144.99;100.00;61100.13;5066361;28;20031;-69
2022/08/05 06:04:08;;;;;;;;;;;;;;;-144.99;100.00;61100.13;5066341;28;20641;-69
2022/08/05 06:06:34;;;;;;;;;;;;;;;-144.99;100.00;61100.13;5061543;28;19931;-69
2022/08/05 06:09:01;;;;;;;;;;;;;;;-144.99;100.00;61100.13;5065854;28;19925;-69
2022/08/05 06:11:28;;;;;;;;;;;;;;;-144.99;100.00;61100.13;5066161;28;19932;-69
2022/08/05 06:13:54;;;;;;;;;;;;;;;-144.99;100.00;61100.13;5065789;28;20377;-69
2022/08/05 06:16:21;;;;;;;;;;;;;;;-144.99;100.00;61100.13;5061884;28;20281;-69
2022/08/05 06:18:47;;;;;;;;;;;;;;;-144.99;100.00;61100.13;5064351;28;19928;-69
2022/08/05 06:21:15;;;;;;;;;;;;;;;-144.99;100.00;61100.13;5066081;28;20292;-69
2022/08/05 06:23:41;;;;;;;;;;;;;;;-144.99;100.00;61100.13;5065542;28;20334;-69
2022/08/05 06:26:08;;;;;;;;;;;;;;;-144.99;100.00;61100.13;5063997;28;19928;-68
2022/08/05 06:28:35;;;;;;;;;;;;;;;-144.99;100.00;61100.13;5064963;28;20365;-73
2022/08/05 06:31:02;;;;;;;;;;;;;;;-144.99;100.00;61100.13;5065199;28;19943;-72
2022/08/05 06:33:28;;;;;;;;;;;;;;;-144.99;100.00;61100.13;5068494;28;19963;-74
2022/08/05 06:35:55;;;;;;;;;;;;;;;-144.99;100.00;61100.13;5065078;28;20162;-74
2022/08/05 06:38:22;;;;;;;;;;;;;;;-144.99;100.00;61100.13;5063713;28;20011;-74
2022/08/05 06:40:49;;;;;;;;;;;;;;;-144.99;100.00;61100.13;5058812;28;19935;-74
2022/08/05 06:43:15;;;;;;;;;;;;;;;-144.99;100.00;61100.13;5065922;28;19932;-74
2022/08/05 06:45:42;;;;;;;;;;;;;;;-144.99;100.00;61100.13;5065279;28;20030;-73
2022/08/05 06:48:08;;;;;;;;;;;;;;;-144.99;100.00;61100.13;5063619;28;20369;-73
2022/08/05 06:50:35;;;;;;;;;;;;;;;-144.99;100.00;61100.13;5065995;28;20003;-73
2022/08/05 06:53:01;;;;;;;;;;;;;;;-144.99;100.00;61100.13;4716667;28;9999909;-73
2022/08/05 06:55:29;;;;;;;;;;;;;;;-144.99;100.00;61100.13;5055327;28;20543;-73
2022/08/05 06:57:55;;;;;;;;;;;;;;;-144.99;100.00;61100.13;5064670;28;20019;-73
2022/08/05 07:00:23;;;;;;;;;;;;;;;-144.99;100.00;61100.13;5054886;28;20148;-73
2022/08/05 07:02:50;;;;;;;;;;;;;;;-144.99;100.00;61100.13;5065706;28;20458;-74
2022/08/05 07:05:16;;;;;;;;;;;;;;;-144.99;100.00;61100.13;5065486;28;19931;-73
2022/08/05 07:07:43;;;;;;;;;;;;;;;-144.99;100.00;61100.13;5065707;28;20031;-73
2022/08/05 07:10:10;;;;;;;;;;;;;;;-144.99;100.00;61100.13;5066651;28;19986;-74
2022/08/05 07:18:06;;;;;;;;;;;;;;;-144.99;100.00;61100.13;5064094;28;19971;-75
2022/08/05 07:20:32;;;;;;;;;;;;;;;-144.99;100.00;61100.13;5065288;28;19950;-73
2022/08/05 07:22:59;;;;;;;;;;;;;;;-144.99;100.00;61100.13;5062302;28;19992;-76
2022/08/05 07:25:25;;;;;;;;;;;;;;;-144.99;100.00;61100.13;5063202;28;20282;-75
2022/08/05 07:27:54;;;;;;;;;;;;;;;-144.99;100.00;61100.13;5066665;28;20014;-72
2022/08/05 07:30:20;;;;;;;;;;;;;;;-144.99;100.00;61100.13;5065425;28;20296;-73
2022/08/05 07:32:47;;;;;;;;;;;;;;;-144.99;100.00;61100.13;5066142;28;19935;-73
2022/08/05 07:35:14;;;;;;;;;;;;;;;-144.99;100.00;61100.13;5066141;28;19935;-73
2022/08/05 07:37:40;;;;;;;;;;;;;;;-144.99;100.00;61100.13;5065862;28;19933;-75
2022/08/05 07:40:08;;;;;;;;;;;;;;;-144.99;100.00;61100.13;5067439;28;19940;-74
2022/08/05 07:42:34;;;;;;;;;;;;;;;-144.99;100.00;61100.13;5069440;28;20257;-72
2022/08/05 07:45:02;;;;;;;;;;;;;;;-144.99;100.00;61100.13;5064774;28;19972;-71
2022/08/05 07:47:28;;;;;;;;;;;;;;;-144.99;100.00;61100.13;5059713;28;19929;-71
2022/08/05 07:49:55;;;;;;;;;;;;;;;-144.99;100.00;61100.13;5066798;28;19924;-72
2022/08/05 07:52:21;;;;;;;;;;;;;;;-144.99;100.00;61100.13;5068579;28;20039;-69
2022/08/05 07:54:48;;;;;;;;;;;;;;;-144.99;100.00;61100.13;5068581;28;19954;-68
2022/08/05 07:57:14;;;;;;;;;;;;;;;-144.99;100.00;61100.13;5068260;28;20431;-69
2022/08/05 07:59:41;;;;;;;;;;;;;;;-144.99;100.00;61100.13;5068661;28;20377;-68
2022/08/05 08:02:10;;;;;;;;;;;;;;;-144.99;100.00;61100.13;5068404;28;20011;-69
2022/08/05 08:04:37;;;;;;;;;;;;;;;-144.99;100.00;61100.13;5069076;28;20412;-69
2022/08/05 08:07:03;;;;;;;;;;;;;;;-144.99;100.00;61100.13;5067166;28;20029;-69
2022/08/05 08:09:30;;;;;;;;;;;;;;;-144.99;100.00;61100.13;5068588;28;19931;-70
2022/08/05 08:11:56;;;;;;;;;;;;;;;-144.99;100.00;61100.13;5068340;28;19950;-70
2022/08/05 08:14:22;;;;;;;;;;;;;;;-144.99;100.00;61100.13;5068920;28;19929;-72
2022/08/05 08:16:49;;;;;;;;;;;;;;;-144.99;100.00;61100.13;5068417;28;19967;-71
2022/08/05 08:19:17;;;;;;;;;;;;;;;-144.99;100.00;61100.13;5067342;28;19935;-72
2022/08/05 08:21:43;;;;;;;;;;;;;;;-144.99;100.00;61100.13;5068351;28;20035;-70
2022/08/05 08:24:10;;;;;;;;;;;;;;;-144.99;100.00;61100.13;5068578;28;19939;-70
2022/08/05 08:26:36;;;;;;;;;;;;;;;-144.99;100.00;61100.13;5067896;28;19956;-72
2022/08/05 08:29:03;;;;;;;;;;;;;;;-144.99;100.00;61100.13;5067965;28;19928;-72
2022/08/05 08:31:29;;;;;;;;;;;;;;;-144.99;100.00;61100.13;5067822;28;20011;-72
2022/08/05 08:33:55;;;;;;;;;;;;;;;-144.99;100.00;61100.13;5068631;28;20064;-70
2022/08/05 08:36:23;;;;;;;;;;;;;;;-144.99;100.00;61100.13;5064041;28;20320;-72
2022/08/05 08:38:53;;;;;;;;;;;;;;;-144.99;100.00;61100.13;5065281;28;19960;-71
2022/08/05 08:41:22;;;;;;;;;;;;;;;-144.99;100.00;61100.13;5069307;28;19931;-71
2022/08/05 08:43:50;;;;;;;;;;;;;;;-144.99;100.00;61100.13;5067693;28;20414;-71
2022/08/05 08:46:17;;;;;;;;;;;;;;;-144.99;100.00;61100.13;5067037;28;19991;-72
2022/08/05 08:48:46;;;;;;;;;;;;;;;-144.99;100.00;61100.13;5065052;28;19935;-72
2022/08/05 08:51:13;;;;;;;;;;;;;;;-144.99;100.00;61100.13;5054972;28;19935;-72
2022/08/05 08:53:41;;;;;;;;;;;;;;;-144.99;100.00;61100.13;5071408;28;19975;-72
2022/08/05 08:56:07;;;;;;;;;;;;;;;-144.99;100.00;61100.13;5073965;28;20412;-72
2022/08/05 08:58:34;;;;;;;;;;;;;;;-144.99;100.00;61100.13;5075209;28;19933;-71
2022/08/05 09:01:00;;;;;;;;;;;;;;;-144.99;100.00;61100.13;5071498;28;20345;-72
2022/08/05 09:03:26;;;;;;;;;;;;;;;-144.99;100.00;61100.13;5071913;28;19928;-71
2022/08/05 09:05:53;;;;;;;;;;;;;;;-144.99;100.00;61100.13;5070125;28;19972;-71
2022/08/05 09:08:19;;;;;;;;;;;;;;;-144.99;100.00;61100.13;5066454;28;19989;-72
2022/08/05 09:10:50;;;;;;;;;;;;;;;-144.99;100.00;61100.13;5067501;28;20452;-71
2022/08/05 09:13:18;;;;;;;;;;;;;;;-144.99;100.00;61100.13;5064921;28;19929;-72
2022/08/05 09:15:44;;;;;;;;;;;;;;;-144.99;100.00;61100.13;5066680;28;20426;-72
2022/08/05 09:18:11;;;;;;;;;;;;;;;-144.99;100.00;61100.13;5067043;28;20017;-72
2022/08/05 09:20:40;;;;;;;;;;;;;;;-144.99;100.00;61100.13;5066857;28;20705;-72
2022/08/05 09:23:09;;;;;;;;;;;;;;;-144.99;100.00;61100.13;5066903;28;19928;-72
2022/08/05 09:25:37;;;;;;;;;;;;;;;-144.99;100.00;61100.13;5064266;28;19928;-72
2022/08/05 09:28:11;;;;;;;;;;;;;;;-144.99;100.00;61100.13;5067089;28;19928;-73
2022/08/05 09:30:37;;;;;;;;;;;;;;;-144.99;100.00;61100.13;5067697;28;20019;-72
2022/08/05 09:33:04;;;;;;;;;;;;;;;-144.99;100.00;61100.13;5067791;28;19924;-72
2022/08/05 09:35:31;;;;;;;;;;;;;;;-144.99;100.00;61100.13;5065412;28;19955;-69
2022/08/05 09:37:57;;;;;;;;;;;;;;;-144.99;100.00;61100.13;5062923;28;19929;-69
2022/08/05 09:40:35;;;;;;;;;;;;;;;-144.99;100.00;61100.13;5057274;28;19935;-69
2022/08/05 09:43:05;;;;;;;;;;;;;;;-144.99;100.00;61100.13;5066681;28;20010;-70
2022/08/05 09:45:38;;;;;;;;;;;;;;;-144.99;100.00;61100.13;5065748;28;19935;-69
2022/08/05 09:48:20;;;;;;;;;;;;;;;-144.99;100.00;61100.13;5064136;28;19958;-69
2022/08/05 09:53:21;;;;;;;;;;;;;;;-144.99;100.00;61100.13;5027691;28;20420;-68
2022/08/05 09:55:50;;;;;;;;;;;;;;;-144.99;100.00;61100.13;5018281;28;20374;-68
2022/08/05 09:58:17;;;;;;;;;;;;;;;-144.99;100.00;61100.13;5024372;28;20012;-69
2022/08/05 10:00:58;;;;;;;;;;;;;;;-144.99;100.00;61100.13;5007543;28;19929;-68
2022/08/05 10:03:26;;;;;;;;;;;;;;;-144.99;100.00;61100.13;5004931;28;20039;-68
2022/08/05 10:06:03;;;;;;;;;;;;;;;-144.99;100.00;61100.13;5009437;28;19968;-69
2022/08/05 10:08:30;;;;;;;;;;;;;;;-144.99;100.00;61100.13;5022091;28;19930;-68
2022/08/05 10:10:56;;;;;;;;;;;;;;;-144.99;100.00;61100.13;5006337;28;19940;-67
2022/08/05 10:13:27;;;;;;;;;;;;;;;-144.99;100.00;61100.13;5006717;28;19947;-67
2022/08/05 10:15:54;;;;;;;;;;;;;;;-144.99;100.00;61100.13;5000194;28;19929;-68
2022/08/05 10:18:22;;;;;;;;;;;;;;;-144.99;100.00;61100.13;5016491;28;19932;-68
2022/08/05 10:20:51;;;;;;;;;;;;;;;-144.99;100.00;61100.13;5020055;28;19925;-68
2022/08/05 10:23:18;;;;;;;;;;;;;;;-144.99;100.00;61100.13;5010114;28;20335;-68
2022/08/05 10:25:45;;;;;;;;;;;;;;;-144.99;100.00;61100.13;5016760;28;19968;-68
2022/08/05 10:28:11;;;;;;;;;;;;;;;-144.99;100.00;61100.13;5010647;28;20357;-67
2022/08/05 10:30:38;;;;;;;;;;;;;;;-144.99;100.00;61100.13;5018402;28;19983;-67
2022/08/05 10:33:05;;;;;;;;;;;;;;;-144.99;100.00;61100.13;5027219;28;19965;-68
2022/08/05 10:35:32;;;;;;;;;;;;;;;-144.99;100.00;61100.13;5020442;28;19931;-68
2022/08/05 10:38:00;;;;;;;;;;;;;;;-144.99;100.00;61100.13;5013173;28;19925;-68
2022/08/05 10:40:29;;;;;;;;;;;;;;;-144.99;100.00;61100.13;5016538;28;19987;-70
2022/08/05 10:42:58;;;;;;;;;;;;;;;-144.99;100.00;61100.13;4675222;28;10000208;-68
2022/08/05 10:45:25;;;;;;;;;;;;;;;-144.99;100.00;61100.13;5004952;28;20032;-68
2022/08/05 10:47:52;;;;;;;;;;;;;;;-144.99;100.00;61100.13;5009440;28;20027;-67
2022/08/05 10:50:19;;;;;;;;;;;;;;;-144.99;100.00;61100.13;5014580;28;19957;-68
2022/08/05 10:52:51;;;;;;;;;;;;;;;-144.99;100.00;61100.13;5006689;28;20442;-67
2022/08/05 10:55:19;;;;;;;;;;;;;;;-144.99;100.00;61100.13;5005853;28;20408;-68
2022/08/05 10:57:45;;;;;;;;;;;;;;;-144.99;100.00;61100.13;5016794;28;19929;-67
2022/08/05 11:00:14;;;;;;;;;;;;;;;-144.99;100.00;61100.13;5012481;28;20473;-68
2022/08/05 11:02:55;;;;;;;;;;;;;;;-144.99;100.00;61100.13;5006325;28;20020;-68
2022/08/05 11:05:21;;;;;;;;;;;;;;;-144.99;100.00;61100.13;5007070;28;19969;-68
2022/08/05 11:07:57;;;;;;;;;;;;;;;-144.99;100.00;61100.13;5005742;28;19932;-68
2022/08/05 11:10:26;;;;;;;;;;;;;;;-144.99;100.00;61100.13;5024442;28;20035;-68
2022/08/05 11:12:53;;;;;;;;;;;;;;;-144.99;100.00;61100.13;5020069;28;19929;-67
2022/08/05 11:15:21;;;;;;;;;;;;;;;-144.99;100.00;61100.13;5026218;28;19925;-68
2022/08/05 11:17:48;;;;;;;;;;;;;;;-144.99;100.00;61100.13;5022536;28;19972;-68
2022/08/05 11:20:37;;;;;;;;;;;;;;;-144.99;100.00;61100.13;5012213;28;19929;-68
2022/08/05 11:23:22;;;;;;;;;;;;;;;-144.99;100.00;61100.13;5020640;28;20051;-69
2022/08/05 11:26:01;;;;;;;;;;;;;;;-144.99;100.00;61100.13;5000607;28;19929;-69
2022/08/05 11:28:43;;;;;;;;;;;;;;;-144.99;100.00;61100.13;5020801;28;19925;-67
2022/08/05 11:31:26;;;;;;;;;;;;;;;-144.99;100.00;61100.13;5022596;28;19931;-68
2022/08/05 11:33:53;;;;;;;;;;;;;;;-144.99;100.00;61100.13;5019021;28;19929;-68
2022/08/05 11:36:21;;;;;;;;;;;;;;;-144.99;100.00;61100.13;5014596;28;19925;-67
2022/08/05 11:38:53;;;;;;;;;;;;;;;-144.99;100.00;61100.13;5016120;28;19933;-69
2022/08/05 11:41:22;;;;;;;;;;;;;;;-144.99;100.00;61100.13;5022163;28;19955;-69
2022/08/05 11:43:56;;;;;;;;;;;;;;;-144.99;100.00;61100.13;5009818;28;20499;-68
2022/08/05 11:46:25;;;;;;;;;;;;;;;-144.99;100.00;61100.13;5005313;28;20738;-69
2022/08/05 11:48:51;;;;;;;;;;;;;;;-144.99;100.00;61100.13;5019009;28;20346;-69
2022/08/05 11:51:18;;;;;;;;;;;;;;;-144.99;100.00;61100.13;5010117;28;20032;-69
2022/08/05 11:53:45;;;;;;;;;;;;;;;-144.99;100.00;61100.13;5010309;28;19969;-69
2022/08/05 11:56:12;;;;;;;;;;;;;;;-144.99;100.00;61100.13;5006502;28;19936;-69
2022/08/05 11:58:40;;;;;;;;;;;;;;;-144.99;100.00;61100.13;5016477;28;19936;-69
2022/08/05 12:01:07;;;;;;;;;;;;;;;-144.99;100.00;61100.13;5018924;28;19929;-69
2022/08/05 12:03:41;;;;;;;;;;;;;;;-144.99;100.00;61100.13;5020537;28;20355;-69
2022/08/05 12:06:08;;;;;;;;;;;;;;;-144.99;100.00;61100.13;5019807;28;19929;-68
2022/08/05 12:08:39;;;;;;;;;;;;;;;-144.99;100.00;61100.13;5013014;28;19937;-68
2022/08/05 12:11:08;;;;;;;;;;;;;;;-144.99;100.00;61100.13;5025931;28;20556;-68
2022/08/05 12:13:34;;;;;;;;;;;;;;;-144.99;100.00;61100.13;5014438;28;20342;-69
2022/08/05 12:16:02;;;;;;;;;;;;;;;-144.99;100.00;61100.13;5009862;28;19929;-68
2022/08/05 12:18:33;;;;;;;;;;;;;;;-144.99;100.00;61100.13;5010429;28;19930;-68
2022/08/05 12:21:08;;;;;;;;;;;;;;;-144.99;100.00;61100.13;5028062;28;19929;-67
2022/08/05 12:23:35;;;;;;;;;;;;;;;-144.99;100.00;61100.13;5025364;28;20024;-68
2022/08/05 12:26:01;;;;;;;;;;;;;;;-144.99;100.00;61100.13;5017539;28;19988;-68
2022/08/05 12:28:31;;;;;;;;;;;;;;;-144.99;100.00;61100.13;5007341;28;19933;-69
2022/08/05 12:31:00;;;;;;;;;;;;;;;-144.99;100.00;61100.13;5018372;28;20307;-69